sensor_id;sensor_type;location;lat;lon;timestamp;P1;durP1;ratioP1;P2;durP2;ratioP2
76210;SDS011;65003;49.518;11.280;2022-12-20T00:01:59;31.53;;;17.27;;
76210;SDS011;65003;49.518;11.280;2022-12-20T00:04:25;30.27;;;16.87;;
76210;SDS011;65003;49.518;11.280;2022-12-20T00:06:52;32.67;;;18.47;;
76210;SDS011;65003;49.518;11.280;2022-12-20T00:09:19;32.93;;;16.70;;
76210;SDS011;65003;49.518;11.280;2022-12-20T00:11:46;33.33;;;17.33;;
76210;SDS011;65003;49.518;11.280;2022-12-20T00:14:12;34.70;;;17.50;;
76210;SDS011;65003;49.518;11.280;2022-12-20T00:16:39;35.27;;;17.93;;
76210;SDS011;65003;49.518;11.280;2022-12-20T00:19:05;33.87;;;17.17;;
76210;SDS011;65003;49.518;11.280;2022-12-20T00:21:32;35.47;;;17.73;;
76210;SDS011;65003;49.518;11.280;2022-12-20T00:23:58;35.83;;;18.70;;
76210;SDS011;65003;49.518;11.280;2022-12-20T00:26:27;33.83;;;17.30;;
76210;SDS011;65003;49.518;11.280;2022-12-20T00:28:52;35.13;;;17.77;;
76210;SDS011;65003;49.518;11.280;2022-12-20T00:31:20;33.10;;;18.00;;
76210;SDS011;65003;49.518;11.280;2022-12-20T00:33:47;32.17;;;18.13;;
76210;SDS011;65003;49.518;11.280;2022-12-20T00:36:14;32.83;;;16.30;;
76210;SDS011;65003;49.518;11.280;2022-12-20T00:38:40;34.80;;;19.63;;
76210;SDS011;65003;49.518;11.280;2022-12-20T00:41:08;31.00;;;17.67;;
76210;SDS011;65003;49.518;11.280;2022-12-20T00:43:34;33.30;;;17.13;;
76210;SDS011;65003;49.518;11.280;2022-12-20T00:46:00;30.30;;;17.43;;
76210;SDS011;65003;49.518;11.280;2022-12-20T00:48:27;34.97;;;17.67;;
76210;SDS011;65003;49.518;11.280;2022-12-20T00:50:57;35.07;;;18.40;;
76210;SDS011;65003;49.518;11.280;2022-12-20T00:53:23;34.90;;;18.90;;
76210;SDS011;65003;49.518;11.280;2022-12-20T00:55:50;30.80;;;17.53;;
76210;SDS011;65003;49.518;11.280;2022-12-20T00:58:16;31.03;;;17.43;;
76210;SDS011;65003;49.518;11.280;2022-12-20T01:00:43;33.60;;;19.07;;
76210;SDS011;65003;49.518;11.280;2022-12-20T01:03:09;34.73;;;17.53;;
76210;SDS011;65003;49.518;11.280;2022-12-20T01:05:37;32.53;;;17.40;;
76210;SDS011;65003;49.518;11.280;2022-12-20T01:08:04;30.37;;;17.37;;
76210;SDS011;65003;49.518;11.280;2022-12-20T01:10:31;32.17;;;17.80;;
76210;SDS011;65003;49.518;11.280;2022-12-20T01:12:58;31.87;;;17.70;;
76210;SDS011;65003;49.518;11.280;2022-12-20T01:15:25;32.00;;;17.20;;
76210;SDS011;65003;49.518;11.280;2022-12-20T01:17:52;33.40;;;17.43;;
76210;SDS011;65003;49.518;11.280;2022-12-20T01:20:18;32.17;;;18.03;;
76210;SDS011;65003;49.518;11.280;2022-12-20T01:22:45;28.93;;;17.03;;
76210;SDS011;65003;49.518;11.280;2022-12-20T01:25:11;40.00;;;20.63;;
76210;SDS011;65003;49.518;11.280;2022-12-20T01:27:38;31.87;;;17.17;;
76210;SDS011;65003;49.518;11.280;2022-12-20T01:30:05;35.17;;;19.33;;
76210;SDS011;65003;49.518;11.280;2022-12-20T01:32:34;34.37;;;18.23;;
76210;SDS011;65003;49.518;11.280;2022-12-20T01:35:00;31.00;;;17.77;;
76210;SDS011;65003;49.518;11.280;2022-12-20T01:37:27;33.63;;;18.30;;
76210;SDS011;65003;49.518;11.280;2022-12-20T01:39:53;34.37;;;18.20;;
76210;SDS011;65003;49.518;11.280;2022-12-20T01:42:22;31.37;;;18.23;;
76210;SDS011;65003;49.518;11.280;2022-12-20T01:44:50;31.53;;;18.90;;
76210;SDS011;65003;49.518;11.280;2022-12-20T01:47:15;26.93;;;16.83;;
76210;SDS011;65003;49.518;11.280;2022-12-20T01:49:43;35.60;;;20.50;;
76210;SDS011;65003;49.518;11.280;2022-12-20T01:52:10;33.77;;;17.73;;
76210;SDS011;65003;49.518;11.280;2022-12-20T01:54:41;34.37;;;17.90;;
76210;SDS011;65003;49.518;11.280;2022-12-20T01:57:08;34.27;;;17.67;;
76210;SDS011;65003;49.518;11.280;2022-12-20T01:59:35;31.77;;;18.13;;
76210;SDS011;65003;49.518;11.280;2022-12-20T02:02:02;34.23;;;18.07;;
76210;SDS011;65003;49.518;11.280;2022-12-20T02:04:27;35.87;;;18.10;;
76210;SDS011;65003;49.518;11.280;2022-12-20T02:06:54;31.10;;;18.20;;
76210;SDS011;65003;49.518;11.280;2022-12-20T02:09:20;34.33;;;18.97;;
76210;SDS011;65003;49.518;11.280;2022-12-20T02:11:51;37.73;;;18.27;;
76210;SDS011;65003;49.518;11.280;2022-12-20T02:17:11;30.50;;;17.87;;
76210;SDS011;65003;49.518;11.280;2022-12-20T02:19:53;32.10;;;18.23;;
76210;SDS011;65003;49.518;11.280;2022-12-20T02:22:25;30.10;;;17.63;;
76210;SDS011;65003;49.518;11.280;2022-12-20T02:25:07;31.23;;;18.00;;
76210;SDS011;65003;49.518;11.280;2022-12-20T02:27:40;31.03;;;17.37;;
76210;SDS011;65003;49.518;11.280;2022-12-20T02:30:08;28.20;;;17.33;;
76210;SDS011;65003;49.518;11.280;2022-12-20T02:32:38;34.90;;;18.87;;
76210;SDS011;65003;49.518;11.280;2022-12-20T02:35:22;33.43;;;17.80;;
76210;SDS011;65003;49.518;11.280;2022-12-20T02:37:50;34.77;;;18.67;;
76210;SDS011;65003;49.518;11.280;2022-12-20T02:40:17;28.80;;;17.80;;
76210;SDS011;65003;49.518;11.280;2022-12-20T02:42:42;31.53;;;18.37;;
76210;SDS011;65003;49.518;11.280;2022-12-20T02:45:09;35.00;;;19.20;;
76210;SDS011;65003;49.518;11.280;2022-12-20T02:47:45;35.37;;;18.80;;
76210;SDS011;65003;49.518;11.280;2022-12-20T02:50:13;35.03;;;18.23;;
76210;SDS011;65003;49.518;11.280;2022-12-20T02:52:39;31.80;;;18.10;;
76210;SDS011;65003;49.518;11.280;2022-12-20T02:55:06;33.97;;;18.53;;
76210;SDS011;65003;49.518;11.280;2022-12-20T02:57:40;34.97;;;19.97;;
76210;SDS011;65003;49.518;11.280;2022-12-20T03:00:10;32.93;;;17.33;;
76210;SDS011;65003;49.518;11.280;2022-12-20T03:02:38;38.80;;;20.13;;
76210;SDS011;65003;49.518;11.280;2022-12-20T03:05:12;34.00;;;18.93;;
76210;SDS011;65003;49.518;11.280;2022-12-20T03:07:38;33.50;;;18.40;;
76210;SDS011;65003;49.518;11.280;2022-12-20T03:10:05;33.93;;;19.77;;
76210;SDS011;65003;49.518;11.280;2022-12-20T03:12:32;32.63;;;19.27;;
76210;SDS011;65003;49.518;11.280;2022-12-20T03:14:59;31.53;;;18.97;;
76210;SDS011;65003;49.518;11.280;2022-12-20T03:17:26;34.07;;;19.10;;
76210;SDS011;65003;49.518;11.280;2022-12-20T03:19:52;33.67;;;19.33;;
76210;SDS011;65003;49.518;11.280;2022-12-20T03:22:19;35.80;;;19.57;;
76210;SDS011;65003;49.518;11.280;2022-12-20T03:24:46;33.90;;;19.00;;
76210;SDS011;65003;49.518;11.280;2022-12-20T03:27:12;33.57;;;19.03;;
76210;SDS011;65003;49.518;11.280;2022-12-20T03:29:40;36.33;;;20.07;;
76210;SDS011;65003;49.518;11.280;2022-12-20T03:32:07;34.60;;;19.03;;
76210;SDS011;65003;49.518;11.280;2022-12-20T03:34:34;37.50;;;19.07;;
76210;SDS011;65003;49.518;11.280;2022-12-20T03:37:00;34.73;;;19.70;;
76210;SDS011;65003;49.518;11.280;2022-12-20T03:39:27;34.97;;;18.97;;
76210;SDS011;65003;49.518;11.280;2022-12-20T03:41:54;33.30;;;18.00;;
76210;SDS011;65003;49.518;11.280;2022-12-20T03:44:21;35.10;;;19.30;;
76210;SDS011;65003;49.518;11.280;2022-12-20T03:46:48;33.57;;;18.40;;
76210;SDS011;65003;49.518;11.280;2022-12-20T03:49:15;32.83;;;17.77;;
76210;SDS011;65003;49.518;11.280;2022-12-20T03:51:42;34.87;;;18.60;;
76210;SDS011;65003;49.518;11.280;2022-12-20T03:54:09;29.60;;;17.87;;
76210;SDS011;65003;49.518;11.280;2022-12-20T03:56:35;30.07;;;18.17;;
76210;SDS011;65003;49.518;11.280;2022-12-20T03:59:03;30.73;;;17.80;;
76210;SDS011;65003;49.518;11.280;2022-12-20T04:01:30;32.33;;;18.47;;
76210;SDS011;65003;49.518;11.280;2022-12-20T04:03:56;30.63;;;18.33;;
76210;SDS011;65003;49.518;11.280;2022-12-20T04:06:23;33.33;;;18.07;;
76210;SDS011;65003;49.518;11.280;2022-12-20T04:08:49;31.00;;;17.73;;
76210;SDS011;65003;49.518;11.280;2022-12-20T04:11:16;32.93;;;19.03;;
76210;SDS011;65003;49.518;11.280;2022-12-20T04:13:47;30.57;;;19.13;;
76210;SDS011;65003;49.518;11.280;2022-12-20T04:16:14;30.07;;;17.53;;
76210;SDS011;65003;49.518;11.280;2022-12-20T04:18:40;32.03;;;18.23;;
76210;SDS011;65003;49.518;11.280;2022-12-20T04:21:07;31.97;;;18.93;;
76210;SDS011;65003;49.518;11.280;2022-12-20T04:23:34;30.47;;;18.10;;
76210;SDS011;65003;49.518;11.280;2022-12-20T04:26:00;34.47;;;18.40;;
76210;SDS011;65003;49.518;11.280;2022-12-20T04:28:27;30.60;;;18.13;;
76210;SDS011;65003;49.518;11.280;2022-12-20T04:30:53;34.00;;;18.80;;
76210;SDS011;65003;49.518;11.280;2022-12-20T04:33:20;34.67;;;18.50;;
76210;SDS011;65003;49.518;11.280;2022-12-20T04:35:46;36.03;;;19.47;;
76210;SDS011;65003;49.518;11.280;2022-12-20T04:38:13;32.00;;;17.87;;
76210;SDS011;65003;49.518;11.280;2022-12-20T04:40:40;31.97;;;17.47;;
76210;SDS011;65003;49.518;11.280;2022-12-20T04:43:06;32.23;;;18.67;;
76210;SDS011;65003;49.518;11.280;2022-12-20T04:45:33;29.17;;;17.47;;
76210;SDS011;65003;49.518;11.280;2022-12-20T04:48:00;34.30;;;20.00;;
76210;SDS011;65003;49.518;11.280;2022-12-20T04:50:26;31.07;;;17.90;;
76210;SDS011;65003;49.518;11.280;2022-12-20T04:52:54;30.63;;;18.33;;
76210;SDS011;65003;49.518;11.280;2022-12-20T04:55:26;28.90;;;17.73;;
76210;SDS011;65003;49.518;11.280;2022-12-20T04:57:52;32.03;;;18.00;;
76210;SDS011;65003;49.518;11.280;2022-12-20T05:00:19;31.37;;;18.80;;
76210;SDS011;65003;49.518;11.280;2022-12-20T05:02:46;32.10;;;18.37;;
76210;SDS011;65003;49.518;11.280;2022-12-20T05:05:12;37.03;;;19.00;;
76210;SDS011;65003;49.518;11.280;2022-12-20T05:07:40;33.83;;;19.60;;
76210;SDS011;65003;49.518;11.280;2022-12-20T05:10:06;29.73;;;17.73;;
76210;SDS011;65003;49.518;11.280;2022-12-20T05:12:34;34.23;;;19.83;;
76210;SDS011;65003;49.518;11.280;2022-12-20T05:15:00;35.17;;;20.23;;
76210;SDS011;65003;49.518;11.280;2022-12-20T05:17:27;30.10;;;18.50;;
76210;SDS011;65003;49.518;11.280;2022-12-20T05:19:53;33.83;;;18.47;;
76210;SDS011;65003;49.518;11.280;2022-12-20T05:22:20;36.20;;;19.00;;
76210;SDS011;65003;49.518;11.280;2022-12-20T05:24:52;35.10;;;19.43;;
76210;SDS011;65003;49.518;11.280;2022-12-20T05:27:25;37.43;;;18.73;;
76210;SDS011;65003;49.518;11.280;2022-12-20T05:29:51;38.53;;;19.13;;
76210;SDS011;65003;49.518;11.280;2022-12-20T05:32:18;37.60;;;20.07;;
76210;SDS011;65003;49.518;11.280;2022-12-20T05:34:44;35.43;;;18.83;;
76210;SDS011;65003;49.518;11.280;2022-12-20T05:37:11;33.13;;;19.53;;
76210;SDS011;65003;49.518;11.280;2022-12-20T05:39:38;33.67;;;19.93;;
76210;SDS011;65003;49.518;11.280;2022-12-20T05:42:04;35.17;;;20.17;;
76210;SDS011;65003;49.518;11.280;2022-12-20T05:44:31;38.80;;;20.63;;
76210;SDS011;65003;49.518;11.280;2022-12-20T05:46:57;36.50;;;20.27;;
76210;SDS011;65003;49.518;11.280;2022-12-20T05:49:24;33.77;;;19.07;;
76210;SDS011;65003;49.518;11.280;2022-12-20T05:51:50;40.37;;;21.73;;
76210;SDS011;65003;49.518;11.280;2022-12-20T05:54:17;33.20;;;19.00;;
76210;SDS011;65003;49.518;11.280;2022-12-20T05:56:44;34.17;;;19.50;;
76210;SDS011;65003;49.518;11.280;2022-12-20T05:59:11;36.13;;;18.90;;
76210;SDS011;65003;49.518;11.280;2022-12-20T06:01:38;36.03;;;20.10;;
76210;SDS011;65003;49.518;11.280;2022-12-20T06:04:04;36.03;;;19.77;;
76210;SDS011;65003;49.518;11.280;2022-12-20T06:06:31;31.07;;;18.90;;
76210;SDS011;65003;49.518;11.280;2022-12-20T06:08:58;35.60;;;19.40;;
76210;SDS011;65003;49.518;11.280;2022-12-20T06:11:24;37.00;;;19.73;;
76210;SDS011;65003;49.518;11.280;2022-12-20T06:13:51;35.20;;;19.73;;
76210;SDS011;65003;49.518;11.280;2022-12-20T06:16:18;32.80;;;19.30;;
76210;SDS011;65003;49.518;11.280;2022-12-20T06:18:44;34.97;;;19.37;;
76210;SDS011;65003;49.518;11.280;2022-12-20T06:21:11;32.27;;;19.07;;
76210;SDS011;65003;49.518;11.280;2022-12-20T06:23:39;33.97;;;19.30;;
76210;SDS011;65003;49.518;11.280;2022-12-20T06:26:06;35.17;;;19.43;;
76210;SDS011;65003;49.518;11.280;2022-12-20T06:28:33;32.67;;;18.53;;
76210;SDS011;65003;49.518;11.280;2022-12-20T06:31:00;34.73;;;18.73;;
76210;SDS011;65003;49.518;11.280;2022-12-20T06:33:26;36.23;;;19.63;;
76210;SDS011;65003;49.518;11.280;2022-12-20T06:35:53;30.70;;;18.83;;
76210;SDS011;65003;49.518;11.280;2022-12-20T06:38:20;29.47;;;17.87;;
76210;SDS011;65003;49.518;11.280;2022-12-20T06:40:47;32.93;;;18.77;;
76210;SDS011;65003;49.518;11.280;2022-12-20T06:43:13;36.23;;;21.03;;
76210;SDS011;65003;49.518;11.280;2022-12-20T06:45:40;36.67;;;19.53;;
76210;SDS011;65003;49.518;11.280;2022-12-20T06:48:07;36.20;;;21.20;;
76210;SDS011;65003;49.518;11.280;2022-12-20T06:50:34;33.90;;;19.40;;
76210;SDS011;65003;49.518;11.280;2022-12-20T06:53:00;32.20;;;19.17;;
76210;SDS011;65003;49.518;11.280;2022-12-20T06:55:27;35.13;;;18.57;;
76210;SDS011;65003;49.518;11.280;2022-12-20T06:57:54;30.00;;;17.97;;
76210;SDS011;65003;49.518;11.280;2022-12-20T07:00:21;37.50;;;19.67;;
76210;SDS011;65003;49.518;11.280;2022-12-20T07:02:47;32.40;;;19.53;;
76210;SDS011;65003;49.518;11.280;2022-12-20T07:05:14;34.33;;;18.57;;
76210;SDS011;65003;49.518;11.280;2022-12-20T07:07:41;30.43;;;17.27;;
76210;SDS011;65003;49.518;11.280;2022-12-20T07:10:08;32.33;;;18.53;;
76210;SDS011;65003;49.518;11.280;2022-12-20T07:12:35;30.17;;;17.70;;
76210;SDS011;65003;49.518;11.280;2022-12-20T07:15:02;30.80;;;18.73;;
76210;SDS011;65003;49.518;11.280;2022-12-20T07:17:30;32.17;;;18.53;;
76210;SDS011;65003;49.518;11.280;2022-12-20T07:19:58;33.73;;;18.63;;
76210;SDS011;65003;49.518;11.280;2022-12-20T07:22:24;31.17;;;17.20;;
76210;SDS011;65003;49.518;11.280;2022-12-20T07:24:51;31.57;;;18.70;;
76210;SDS011;65003;49.518;11.280;2022-12-20T07:27:17;31.40;;;18.40;;
76210;SDS011;65003;49.518;11.280;2022-12-20T07:29:44;31.90;;;17.53;;
76210;SDS011;65003;49.518;11.280;2022-12-20T07:32:11;29.70;;;18.33;;
76210;SDS011;65003;49.518;11.280;2022-12-20T07:34:37;30.50;;;18.30;;
76210;SDS011;65003;49.518;11.280;2022-12-20T07:37:04;32.70;;;17.97;;
76210;SDS011;65003;49.518;11.280;2022-12-20T07:39:30;35.63;;;19.50;;
76210;SDS011;65003;49.518;11.280;2022-12-20T07:41:58;32.70;;;17.37;;
76210;SDS011;65003;49.518;11.280;2022-12-20T07:44:25;32.30;;;18.60;;
76210;SDS011;65003;49.518;11.280;2022-12-20T07:46:52;32.67;;;17.77;;
76210;SDS011;65003;49.518;11.280;2022-12-20T07:49:18;32.03;;;16.93;;
76210;SDS011;65003;49.518;11.280;2022-12-20T07:51:47;32.93;;;19.57;;
76210;SDS011;65003;49.518;11.280;2022-12-20T07:54:14;34.67;;;19.80;;
76210;SDS011;65003;49.518;11.280;2022-12-20T07:56:50;31.10;;;17.93;;
76210;SDS011;65003;49.518;11.280;2022-12-20T07:59:17;28.37;;;17.97;;
76210;SDS011;65003;49.518;11.280;2022-12-20T08:01:42;31.97;;;19.13;;
76210;SDS011;65003;49.518;11.280;2022-12-20T08:04:13;31.57;;;18.57;;
76210;SDS011;65003;49.518;11.280;2022-12-20T08:06:36;38.17;;;19.73;;
76210;SDS011;65003;49.518;11.280;2022-12-20T08:09:04;34.30;;;19.20;;
76210;SDS011;65003;49.518;11.280;2022-12-20T08:11:29;35.03;;;19.80;;
76210;SDS011;65003;49.518;11.280;2022-12-20T08:13:56;32.27;;;19.33;;
76210;SDS011;65003;49.518;11.280;2022-12-20T08:16:23;30.67;;;19.07;;
76210;SDS011;65003;49.518;11.280;2022-12-20T08:18:49;33.50;;;19.27;;
76210;SDS011;65003;49.518;11.280;2022-12-20T08:21:16;33.33;;;18.77;;
76210;SDS011;65003;49.518;11.280;2022-12-20T08:23:42;31.33;;;19.30;;
76210;SDS011;65003;49.518;11.280;2022-12-20T08:26:09;28.53;;;17.53;;
76210;SDS011;65003;49.518;11.280;2022-12-20T08:28:36;31.60;;;19.00;;
76210;SDS011;65003;49.518;11.280;2022-12-20T08:31:02;37.77;;;18.00;;
76210;SDS011;65003;49.518;11.280;2022-12-20T08:33:29;32.60;;;19.17;;
76210;SDS011;65003;49.518;11.280;2022-12-20T08:35:57;31.75;;;18.57;;
76210;SDS011;65003;49.518;11.280;2022-12-20T08:38:24;31.90;;;19.27;;
76210;SDS011;65003;49.518;11.280;2022-12-20T08:40:51;35.07;;;18.80;;
76210;SDS011;65003;49.518;11.280;2022-12-20T08:43:17;31.20;;;17.57;;
76210;SDS011;65003;49.518;11.280;2022-12-20T08:45:44;29.97;;;17.90;;
76210;SDS011;65003;49.518;11.280;2022-12-20T08:48:11;28.50;;;17.00;;
76210;SDS011;65003;49.518;11.280;2022-12-20T08:50:38;27.07;;;16.93;;
76210;SDS011;65003;49.518;11.280;2022-12-20T08:53:05;31.63;;;17.77;;
76210;SDS011;65003;49.518;11.280;2022-12-20T08:55:31;31.73;;;17.17;;
76210;SDS011;65003;49.518;11.280;2022-12-20T08:57:58;32.43;;;17.50;;
76210;SDS011;65003;49.518;11.280;2022-12-20T09:00:24;30.40;;;17.00;;
76210;SDS011;65003;49.518;11.280;2022-12-20T09:02:52;34.10;;;17.87;;
76210;SDS011;65003;49.518;11.280;2022-12-20T09:05:18;32.93;;;18.07;;
76210;SDS011;65003;49.518;11.280;2022-12-20T09:07:44;30.30;;;17.33;;
76210;SDS011;65003;49.518;11.280;2022-12-20T09:10:12;38.07;;;18.93;;
76210;SDS011;65003;49.518;11.280;2022-12-20T09:12:38;27.20;;;16.60;;
76210;SDS011;65003;49.518;11.280;2022-12-20T09:15:06;31.50;;;17.90;;
76210;SDS011;65003;49.518;11.280;2022-12-20T09:17:33;27.63;;;15.70;;
76210;SDS011;65003;49.518;11.280;2022-12-20T09:20:00;28.67;;;15.77;;
76210;SDS011;65003;49.518;11.280;2022-12-20T09:22:27;28.67;;;17.37;;
76210;SDS011;65003;49.518;11.280;2022-12-20T09:24:54;27.23;;;16.00;;
76210;SDS011;65003;49.518;11.280;2022-12-20T09:27:20;27.13;;;15.90;;
76210;SDS011;65003;49.518;11.280;2022-12-20T09:29:47;25.57;;;15.60;;
76210;SDS011;65003;49.518;11.280;2022-12-20T09:32:13;25.70;;;15.73;;
76210;SDS011;65003;49.518;11.280;2022-12-20T09:34:40;23.37;;;14.63;;
76210;SDS011;65003;49.518;11.280;2022-12-20T09:37:07;25.63;;;15.67;;
76210;SDS011;65003;49.518;11.280;2022-12-20T09:39:33;28.67;;;15.13;;
76210;SDS011;65003;49.518;11.280;2022-12-20T09:42:00;25.53;;;14.60;;
76210;SDS011;65003;49.518;11.280;2022-12-20T09:44:28;26.47;;;15.20;;
76210;SDS011;65003;49.518;11.280;2022-12-20T09:46:57;25.93;;;14.70;;
76210;SDS011;65003;49.518;11.280;2022-12-20T09:49:25;25.10;;;15.00;;
76210;SDS011;65003;49.518;11.280;2022-12-20T09:54:27;28.23;;;15.73;;
76210;SDS011;65003;49.518;11.280;2022-12-20T09:59:23;26.47;;;14.33;;
76210;SDS011;65003;49.518;11.280;2022-12-20T10:01:49;25.27;;;15.30;;
76210;SDS011;65003;49.518;11.280;2022-12-20T10:04:20;25.33;;;14.87;;
76210;SDS011;65003;49.518;11.280;2022-12-20T10:06:52;25.47;;;15.07;;
76210;SDS011;65003;49.518;11.280;2022-12-20T10:09:40;25.33;;;14.43;;
76210;SDS011;65003;49.518;11.280;2022-12-20T10:12:14;27.37;;;15.53;;
76210;SDS011;65003;49.518;11.280;2022-12-20T10:14:47;27.20;;;15.50;;
76210;SDS011;65003;49.518;11.280;2022-12-20T10:17:22;22.33;;;14.53;;
76210;SDS011;65003;49.518;11.280;2022-12-20T10:19:53;26.23;;;15.27;;
76210;SDS011;65003;49.518;11.280;2022-12-20T10:22:24;26.57;;;14.90;;
76210;SDS011;65003;49.518;11.280;2022-12-20T10:24:52;28.33;;;16.00;;
76210;SDS011;65003;49.518;11.280;2022-12-20T10:27:17;27.87;;;16.97;;
76210;SDS011;65003;49.518;11.280;2022-12-20T10:29:43;23.63;;;15.00;;
76210;SDS011;65003;49.518;11.280;2022-12-20T10:32:11;29.10;;;15.77;;
76210;SDS011;65003;49.518;11.280;2022-12-20T10:34:37;26.77;;;16.27;;
76210;SDS011;65003;49.518;11.280;2022-12-20T10:37:09;25.67;;;15.67;;
76210;SDS011;65003;49.518;11.280;2022-12-20T10:39:40;26.00;;;15.37;;
76210;SDS011;65003;49.518;11.280;2022-12-20T10:42:20;28.27;;;16.37;;
76210;SDS011;65003;49.518;11.280;2022-12-20T10:44:33;28.73;;;17.23;;
76210;SDS011;65003;49.518;11.280;2022-12-20T10:47:00;26.27;;;15.87;;
76210;SDS011;65003;49.518;11.280;2022-12-20T10:49:33;32.63;;;16.00;;
76210;SDS011;65003;49.518;11.280;2022-12-20T10:52:00;27.67;;;15.73;;
76210;SDS011;65003;49.518;11.280;2022-12-20T10:54:30;29.00;;;16.50;;
76210;SDS011;65003;49.518;11.280;2022-12-20T10:56:57;28.27;;;16.57;;
76210;SDS011;65003;49.518;11.280;2022-12-20T10:59:27;27.23;;;15.37;;
76210;SDS011;65003;49.518;11.280;2022-12-20T11:01:52;27.57;;;15.47;;
76210;SDS011;65003;49.518;11.280;2022-12-20T11:06:57;25.60;;;15.47;;
76210;SDS011;65003;49.518;11.280;2022-12-20T11:09:31;25.03;;;15.20;;
76210;SDS011;65003;49.518;11.280;2022-12-20T11:12:03;23.93;;;15.67;;
76210;SDS011;65003;49.518;11.280;2022-12-20T11:14:29;24.97;;;15.00;;
76210;SDS011;65003;49.518;11.280;2022-12-20T11:16:55;27.50;;;15.83;;
76210;SDS011;65003;49.518;11.280;2022-12-20T11:19:29;25.13;;;15.23;;
76210;SDS011;65003;49.518;11.280;2022-12-20T11:22:07;26.90;;;14.83;;
76210;SDS011;65003;49.518;11.280;2022-12-20T11:24:55;22.07;;;13.93;;
76210;SDS011;65003;49.518;11.280;2022-12-20T11:27:24;23.20;;;14.00;;
76210;SDS011;65003;49.518;11.280;2022-12-20T11:30:07;22.17;;;14.63;;
76210;SDS011;65003;49.518;11.280;2022-12-20T11:32:35;25.50;;;14.10;;
76210;SDS011;65003;49.518;11.280;2022-12-20T11:37:50;23.27;;;14.37;;
76210;SDS011;65003;49.518;11.280;2022-12-20T11:40:20;22.13;;;13.67;;
76210;SDS011;65003;49.518;11.280;2022-12-20T11:43:04;21.77;;;13.67;;
76210;SDS011;65003;49.518;11.280;2022-12-20T11:45:39;24.80;;;13.50;;
76210;SDS011;65003;49.518;11.280;2022-12-20T11:48:12;27.67;;;14.13;;
76210;SDS011;65003;49.518;11.280;2022-12-20T11:50:44;20.47;;;13.47;;
76210;SDS011;65003;49.518;11.280;2022-12-20T11:53:24;23.97;;;13.60;;
76210;SDS011;65003;49.518;11.280;2022-12-20T11:55:49;30.63;;;16.17;;
76210;SDS011;65003;49.518;11.280;2022-12-20T11:58:17;28.87;;;15.30;;
76210;SDS011;65003;49.518;11.280;2022-12-20T12:00:45;27.40;;;14.30;;
76210;SDS011;65003;49.518;11.280;2022-12-20T12:03:11;25.27;;;13.40;;
76210;SDS011;65003;49.518;11.280;2022-12-20T12:05:43;24.60;;;13.37;;
76210;SDS011;65003;49.518;11.280;2022-12-20T12:08:11;24.67;;;14.73;;
76210;SDS011;65003;49.518;11.280;2022-12-20T12:10:37;25.43;;;14.40;;
76210;SDS011;65003;49.518;11.280;2022-12-20T12:13:10;23.60;;;14.80;;
76210;SDS011;65003;49.518;11.280;2022-12-20T12:15:41;23.10;;;14.27;;
76210;SDS011;65003;49.518;11.280;2022-12-20T12:18:08;28.87;;;15.03;;
76210;SDS011;65003;49.518;11.280;2022-12-20T12:20:39;28.60;;;14.07;;
76210;SDS011;65003;49.518;11.280;2022-12-20T12:23:21;25.27;;;14.63;;
76210;SDS011;65003;49.518;11.280;2022-12-20T12:25:48;22.80;;;13.77;;
76210;SDS011;65003;49.518;11.280;2022-12-20T12:28:15;26.10;;;15.77;;
76210;SDS011;65003;49.518;11.280;2022-12-20T12:30:43;25.53;;;13.27;;
76210;SDS011;65003;49.518;11.280;2022-12-20T12:33:13;27.43;;;15.77;;
76210;SDS011;65003;49.518;11.280;2022-12-20T12:40:53;26.77;;;15.07;;
76210;SDS011;65003;49.518;11.280;2022-12-20T12:43:40;25.33;;;15.80;;
76210;SDS011;65003;49.518;11.280;2022-12-20T12:46:13;26.47;;;14.87;;
76210;SDS011;65003;49.518;11.280;2022-12-20T12:48:39;24.97;;;14.37;;
76210;SDS011;65003;49.518;11.280;2022-12-20T12:51:07;23.83;;;13.60;;
76210;SDS011;65003;49.518;11.280;2022-12-20T12:53:35;23.80;;;14.23;;
76210;SDS011;65003;49.518;11.280;2022-12-20T12:59:14;20.80;;;12.93;;
76210;SDS011;65003;49.518;11.280;2022-12-20T13:02:21;25.33;;;13.50;;
76210;SDS011;65003;49.518;11.280;2022-12-20T13:13:11;28.80;;;16.97;;
76210;SDS011;65003;49.518;11.280;2022-12-20T13:18:19;28.97;;;15.80;;
76210;SDS011;65003;49.518;11.280;2022-12-20T13:20:42;25.53;;;15.97;;
76210;SDS011;65003;49.518;11.280;2022-12-20T13:23:16;28.80;;;16.00;;
76210;SDS011;65003;49.518;11.280;2022-12-20T13:25:44;24.57;;;14.87;;
76210;SDS011;65003;49.518;11.280;2022-12-20T13:33:55;25.53;;;15.20;;
76210;SDS011;65003;49.518;11.280;2022-12-20T13:36:28;23.63;;;13.40;;
76210;SDS011;65003;49.518;11.280;2022-12-20T13:38:55;28.13;;;15.50;;
76210;SDS011;65003;49.518;11.280;2022-12-20T13:41:27;26.23;;;15.53;;
76210;SDS011;65003;49.518;11.280;2022-12-20T13:43:52;32.57;;;16.07;;
76210;SDS011;65003;49.518;11.280;2022-12-20T13:46:20;29.07;;;15.60;;
76210;SDS011;65003;49.518;11.280;2022-12-20T13:48:53;28.83;;;15.97;;
76210;SDS011;65003;49.518;11.280;2022-12-20T13:51:23;24.70;;;15.23;;
76210;SDS011;65003;49.518;11.280;2022-12-20T13:53:53;28.40;;;16.47;;
76210;SDS011;65003;49.518;11.280;2022-12-20T13:56:30;24.97;;;14.73;;
76210;SDS011;65003;49.518;11.280;2022-12-20T13:59:06;25.53;;;14.13;;
76210;SDS011;65003;49.518;11.280;2022-12-20T14:01:45;25.70;;;14.23;;
76210;SDS011;65003;49.518;11.280;2022-12-20T14:04:11;26.90;;;15.83;;
76210;SDS011;65003;49.518;11.280;2022-12-20T14:06:38;25.10;;;15.13;;
76210;SDS011;65003;49.518;11.280;2022-12-20T14:09:24;26.80;;;15.27;;
76210;SDS011;65003;49.518;11.280;2022-12-20T14:11:32;26.13;;;15.57;;
76210;SDS011;65003;49.518;11.280;2022-12-20T14:13:59;25.37;;;14.40;;
76210;SDS011;65003;49.518;11.280;2022-12-20T14:16:26;32.13;;;17.13;;
76210;SDS011;65003;49.518;11.280;2022-12-20T14:19:00;31.60;;;18.27;;
76210;SDS011;65003;49.518;11.280;2022-12-20T14:21:25;26.87;;;15.13;;
76210;SDS011;65003;49.518;11.280;2022-12-20T14:23:52;23.63;;;15.33;;
76210;SDS011;65003;49.518;11.280;2022-12-20T14:26:20;30.23;;;16.40;;
76210;SDS011;65003;49.518;11.280;2022-12-20T14:28:54;25.47;;;14.53;;
76210;SDS011;65003;49.518;11.280;2022-12-20T14:31:22;26.73;;;14.30;;
76210;SDS011;65003;49.518;11.280;2022-12-20T14:34:13;25.00;;;15.03;;
76210;SDS011;65003;49.518;11.280;2022-12-20T14:36:40;28.83;;;16.00;;
76210;SDS011;65003;49.518;11.280;2022-12-20T14:39:22;27.73;;;15.63;;
76210;SDS011;65003;49.518;11.280;2022-12-20T14:41:53;27.97;;;15.57;;
76210;SDS011;65003;49.518;11.280;2022-12-20T14:44:16;30.10;;;15.67;;
76210;SDS011;65003;49.518;11.280;2022-12-20T14:46:48;25.43;;;14.13;;
76210;SDS011;65003;49.518;11.280;2022-12-20T14:49:27;27.23;;;14.80;;
76210;SDS011;65003;49.518;11.280;2022-12-20T14:52:05;23.43;;;14.47;;
76210;SDS011;65003;49.518;11.280;2022-12-20T14:54:31;27.87;;;14.93;;